Time;durP1;ratioP1;P1;durP2;ratioP2;P2;SDS_P1;SDS_P2;PMS_P1;PMS_P2;Temp;Humidity;BMP_temperature;BMP_pressure;BME280_temperature;BME280_humidity;BME280_pressure;Samples;Min_cycle;Max_cycle;Signal;HPM_P1;HPM_P2
2021/03/01 00:02:08;;;;;;;13.82;6.45;;;-1.60;99.90;;;;;;8361417;28;20040;-71
2021/03/01 00:06:09;;;;;;;12.48;6.43;;;-1.50;99.90;;;;;;8374204;28;20017;-70
2021/03/01 00:10:11;;;;;;;15.32;6.80;;;-1.60;99.90;;;;;;8379451;28;20031;-70
2021/03/01 00:14:11;;;;;;;12.20;6.68;;;-1.70;99.90;;;;;;8373509;28;20479;-71
2021/03/01 00:18:12;;;;;;;17.05;7.22;;;-1.80;99.90;;;;;;8362478;28;20040;-71
2021/03/01 00:22:13;;;;;;;15.88;7.18;;;-1.90;99.90;;;;;;8362408;28;20056;-70
2021/03/01 00:26:14;;;;;;;16.80;7.70;;;-1.90;99.90;;;;;;8364173;28;20387;-70
2021/03/01 00:30:15;;;;;;;14.82;7.43;;;-1.80;99.90;;;;;;8362084;28;20021;-71
2021/03/01 00:34:16;;;;;;;16.17;7.82;;;-1.80;99.90;;;;;;8362378;28;20021;-70
2021/03/01 00:38:16;;;;;;;15.75;7.43;;;-2.00;99.90;;;;;;8364035;28;20025;-71
2021/03/01 00:42:17;;;;;;;15.65;7.38;;;-2.10;99.90;;;;;;8363566;28;20029;-70
2021/03/01 00:46:17;;;;;;;16.42;8.18;;;-1.90;99.90;;;;;;8362611;28;20038;-70
2021/03/01 00:50:19;;;;;;;17.77;8.52;;;-2.00;99.90;;;;;;8362145;28;20090;-71
2021/03/01 00:54:19;;;;;;;17.30;8.27;;;-1.90;99.90;;;;;;8363434;28;20025;-70
2021/03/01 00:58:20;;;;;;;13.00;6.82;;;-1.80;99.90;;;;;;8362468;28;20395;-70
2021/03/01 01:02:21;;;;;;;14.95;7.38;;;-1.90;99.90;;;;;;8361145;28;20033;-70
2021/03/01 01:06:21;;;;;;;15.50;6.72;;;-2.10;99.90;;;;;;8360682;28;20056;-70
2021/03/01 01:10:22;;;;;;;12.15;6.47;;;-2.10;99.90;;;;;;8360133;28;20025;-71
2021/03/01 01:14:22;;;;;;;13.45;6.68;;;-2.00;99.90;;;;;;8362634;28;20218;-70
2021/03/01 01:18:23;;;;;;;12.80;6.30;;;-2.10;99.90;;;;;;8362796;28;20041;-70
2021/03/01 01:22:23;;;;;;;12.63;6.35;;;-2.40;99.90;;;;;;8362529;28;20022;-70
2021/03/01 01:26:24;;;;;;;13.98;6.60;;;-2.60;99.90;;;;;;8362116;28;20061;-70
2021/03/01 01:30:26;;;;;;;15.95;7.88;;;-2.70;99.90;;;;;;8359877;28;20410;-70
2021/03/01 01:34:26;;;;;;;16.08;7.03;;;-2.50;99.90;;;;;;8361318;28;20063;-70
2021/03/01 01:38:27;;;;;;;14.05;6.85;;;-2.50;99.90;;;;;;8361022;28;20029;-70
2021/03/01 01:42:28;;;;;;;17.23;7.35;;;-2.50;99.90;;;;;;8360817;28;20028;-70
2021/03/01 01:46:28;;;;;;;14.52;6.85;;;-2.70;99.90;;;;;;8359921;28;20395;-71
2021/03/01 01:50:30;;;;;;;13.45;6.68;;;-2.30;99.90;;;;;;8361593;28;20029;-70
2021/03/01 01:54:31;;;;;;;15.32;6.45;;;-2.20;99.90;;;;;;8360409;28;20045;-70
2021/03/01 01:58:32;;;;;;;14.43;6.22;;;-2.30;99.90;;;;;;8367433;28;20261;-71
2021/03/01 02:02:33;;;;;;;16.70;6.45;;;-2.30;99.90;;;;;;8375489;28;20051;-70
2021/03/01 02:07:03;;;;;;;13.65;6.10;;;-2.50;99.90;;;;;;8366682;28;20029;-71
2021/03/01 02:11:38;;;;;;;12.50;5.82;;;-2.70;99.90;;;;;;8392291;28;20082;-71
2021/03/01 02:15:53;;;;;;;15.90;6.18;;;-2.90;99.90;;;;;;8383126;28;20078;-71
2021/03/01 02:19:54;;;;;;;13.70;5.95;;;-2.80;99.90;;;;;;8394505;28;20398;-71
2021/03/01 02:23:55;;;;;;;13.48;6.15;;;-2.70;99.90;;;;;;8392720;28;20031;-71
2021/03/01 02:28:06;;;;;;;13.18;6.63;;;-2.90;99.90;;;;;;8366444;28;20143;-70
2021/03/01 02:32:08;;;;;;;17.08;6.80;;;-2.80;99.90;;;;;;8358418;28;20025;-70
2021/03/01 02:36:28;;;;;;;10.25;5.55;;;-2.70;99.90;;;;;;8360534;28;20029;-70
2021/03/01 02:40:30;;;;;;;13.60;5.83;;;-2.80;99.90;;;;;;8357490;28;20029;-70
2021/03/01 02:44:31;;;;;;;12.07;6.35;;;-2.60;99.90;;;;;;8360070;28;20031;-71
2021/03/01 02:48:33;;;;;;;13.55;5.97;;;-2.70;99.90;;;;;;8358849;28;20025;-70
2021/03/01 02:52:35;;;;;;;12.13;5.75;;;-2.70;99.90;;;;;;8358466;28;20135;-71
2021/03/01 02:56:37;;;;;;;13.05;5.70;;;-3.10;99.90;;;;;;8359753;28;20102;-71
2021/03/01 03:00:39;;;;;;;15.00;7.70;;;-3.20;99.90;;;;;;8358576;28;20391;-70
2021/03/01 03:04:41;;;;;;;17.95;7.80;;;-2.90;99.90;;;;;;8406176;22;20056;-67
2021/03/01 03:08:44;;;;;;;21.15;9.75;;;-3.20;99.90;;;;;;8390582;28;20037;-67
2021/03/01 03:12:45;;;;;;;17.73;9.32;;;-2.70;99.90;;;;;;8381626;28;20533;-67
2021/03/01 03:16:50;;;;;;;15.27;7.80;;;-2.60;99.90;;;;;;8358964;28;20075;-68
2021/03/01 03:20:51;;;;;;;19.00;7.75;;;-2.80;99.90;;;;;;8359461;28;20029;-67
2021/03/01 03:24:52;;;;;;;15.98;7.85;;;-3.20;99.90;;;;;;8356831;28;20056;-66
2021/03/01 03:28:52;;;;;;;17.83;7.90;;;-3.10;99.90;;;;;;8358002;28;20446;-67
2021/03/01 03:32:53;;;;;;;18.08;8.77;;;-3.30;99.90;;;;;;8358321;28;20100;-67
2021/03/01 03:37:04;;;;;;;27.80;11.77;;;-2.90;99.90;;;;;;8357690;28;20307;-68
2021/03/01 03:41:07;;;;;;;21.98;10.68;;;-2.90;99.90;;;;;;8357612;28;20021;-67
2021/03/01 03:45:11;;;;;;;21.73;10.02;;;-3.10;99.90;;;;;;8358910;28;20102;-67
2021/03/01 03:49:13;;;;;;;19.38;9.85;;;-3.40;99.90;;;;;;8356199;28;20029;-67
2021/03/01 03:53:16;;;;;;;21.52;9.65;;;-3.40;99.90;;;;;;8353361;28;20411;-67
2021/03/01 03:57:22;;;;;;;19.55;9.55;;;-3.30;99.90;;;;;;8354538;28;20522;-67
2021/03/01 04:01:24;;;;;;;14.85;6.75;;;-3.30;99.90;;;;;;8357316;28;20025;-67
2021/03/01 04:05:26;;;;;;;14.43;6.72;;;-3.30;99.90;;;;;;8355924;28;20032;-67
2021/03/01 04:09:29;;;;;;;13.25;6.63;;;-3.20;99.90;;;;;;8356770;28;20510;-68
2021/03/01 04:13:31;;;;;;;13.13;6.13;;;-3.50;99.90;;;;;;8362190;28;20024;-67
2021/03/01 04:17:35;;;;;;;15.18;6.25;;;-3.30;99.90;;;;;;8360452;28;20059;-68
2021/03/01 04:21:36;;;;;;;13.60;6.07;;;-3.20;99.90;;;;;;8361940;28;20376;-67
2021/03/01 04:25:38;;;;;;;14.88;6.80;;;-3.20;99.90;;;;;;8359517;28;20028;-67
2021/03/01 04:29:38;;;;;;;10.85;5.68;;;-3.20;99.90;;;;;;8355735;28;20025;-67
2021/03/01 04:33:42;;;;;;;11.43;5.80;;;-3.20;99.90;;;;;;8359883;28;20025;-68
2021/03/01 04:37:42;;;;;;;13.20;6.05;;;-3.50;99.90;;;;;;8357612;28;20058;-67
2021/03/01 04:41:45;;;;;;;10.05;4.97;;;-3.80;99.90;;;;;;8359385;28;20029;-67
2021/03/01 04:45:46;;;;;;;12.80;5.65;;;-3.50;99.90;;;;;;8363279;28;20033;-67
2021/03/01 04:49:47;;;;;;;14.70;5.75;;;-3.50;99.90;;;;;;8360395;28;20021;-67
2021/03/01 04:53:48;;;;;;;12.82;5.50;;;-3.50;99.90;;;;;;8362747;28;20381;-67
2021/03/01 04:57:53;;;;;;;12.93;5.95;;;-3.30;99.90;;;;;;8361115;28;20029;-68
2021/03/01 05:01:53;;;;;;;11.13;5.65;;;-3.30;99.90;;;;;;8360180;28;20470;-66
2021/03/01 05:05:57;;;;;;;9.70;5.57;;;-3.20;99.90;;;;;;8357289;28;20032;-67
2021/03/01 05:09:58;;;;;;;12.45;5.25;;;-3.50;99.90;;;;;;8357197;28;20029;-66
2021/03/01 05:14:01;;;;;;;12.90;5.65;;;-3.50;99.90;;;;;;8353069;28;20026;-68
2021/03/01 05:18:02;;;;;;;11.40;5.47;;;-3.60;99.90;;;;;;8360675;28;20029;-68
2021/03/01 05:22:04;;;;;;;11.82;5.13;;;-3.60;99.90;;;;;;8363877;28;20111;-67
2021/03/01 05:26:04;;;;;;;12.35;5.40;;;-3.70;99.90;;;;;;8360569;28;20067;-67
2021/03/01 05:30:07;;;;;;;10.65;5.28;;;-3.90;99.90;;;;;;8359556;28;20024;-67
2021/03/01 05:34:08;;;;;;;12.40;5.15;;;-3.80;99.90;;;;;;8358965;28;20579;-69
2021/03/01 05:38:09;;;;;;;10.43;4.82;;;-3.60;99.90;;;;;;8357165;28;20025;-67
2021/03/01 05:42:13;;;;;;;13.02;5.70;;;-3.70;99.90;;;;;;8358931;28;20021;-67
2021/03/01 05:46:15;;;;;;;12.68;5.63;;;-3.90;99.90;;;;;;8355755;28;20017;-68
2021/03/01 05:50:18;;;;;;;13.70;5.13;;;-3.60;99.90;;;;;;8357043;28;20020;-68
2021/03/01 05:54:20;;;;;;;12.88;5.55;;;-3.50;99.90;;;;;;8374634;28;20031;-67
2021/03/01 05:58:21;;;;;;;16.83;9.15;;;-3.80;99.90;;;;;;8354140;28;20037;-66
2021/03/01 06:02:22;;;;;;;16.50;8.45;;;-3.70;99.90;;;;;;8354396;28;20563;-67
2021/03/01 06:06:23;;;;;;;16.52;8.10;;;-3.50;99.90;;;;;;8358243;28;20086;-67
2021/03/01 06:10:24;;;;;;;16.35;7.32;;;-3.60;99.90;;;;;;8359760;28;20021;-67
2021/03/01 06:14:25;;;;;;;16.27;6.93;;;-3.50;99.90;;;;;;8360527;28;20028;-68
2021/03/01 06:18:26;;;;;;;15.65;7.15;;;-3.60;99.90;;;;;;8359328;28;20098;-68
2021/03/01 06:22:41;;;;;;;17.88;7.90;;;-3.20;99.90;;;;;;8360375;28;20029;-68
2021/03/01 06:26:41;;;;;;;10.35;5.72;;;-1.90;99.90;;;;;;8375158;28;20032;-67
2021/03/01 06:30:42;;;;;;;10.85;6.10;;;0.70;99.90;;;;;;8357028;28;20506;-70
2021/03/01 06:34:42;;;;;;;11.90;6.18;;;1.70;99.90;;;;;;8354920;28;20031;-70
2021/03/01 06:38:43;;;;;;;11.68;5.55;;;2.30;99.90;;;;;;8358291;28;20510;-71
2021/03/01 06:42:43;;;;;;;9.10;4.90;;;2.70;99.90;;;;;;8359584;28;20075;-66
2021/03/01 06:46:52;;;;;;;10.50;5.32;;;2.30;99.90;;;;;;8358876;28;20482;-66
2021/03/01 06:50:54;;;;;;;11.43;5.80;;;2.20;99.90;;;;;;8357899;28;20029;-66
2021/03/01 06:55:08;;;;;;;8.90;5.40;;;1.20;99.90;;;;;;8355634;28;20025;-65
2021/03/01 06:59:19;;;;;;;10.45;5.72;;;0.20;99.90;;;;;;8355044;28;20423;-65
2021/03/01 07:03:21;;;;;;;31.83;16.40;;;-0.20;99.90;;;;;;8355252;28;20021;-65
2021/03/01 07:07:36;;;;;;;17.25;8.98;;;-0.50;99.90;;;;;;8354875;28;20029;-65
2021/03/01 07:11:37;;;;;;;12.43;5.40;;;-0.50;99.90;;;;;;8355952;28;20033;-66
2021/03/01 07:15:38;;;;;;;17.00;8.77;;;-0.50;99.90;;;;;;8355389;28;20126;-65
2021/03/01 07:19:39;;;;;;;11.82;5.35;;;-0.50;99.90;;;;;;8357311;28;20111;-66
2021/03/01 07:23:47;;;;;;;11.35;5.20;;;-0.50;99.90;;;;;;8355476;28;20032;-65
2021/03/01 07:27:52;;;;;;;11.05;5.93;;;-0.40;99.90;;;;;;8344899;28;20386;-65
2021/03/01 07:32:06;;;;;;;13.48;6.05;;;-0.40;99.90;;;;;;8354666;28;20040;-65
2021/03/01 07:36:07;;;;;;;15.02;7.22;;;-0.40;99.90;;;;;;8353045;28;20448;-65
2021/03/01 07:40:08;;;;;;;13.15;7.43;;;-0.10;99.90;;;;;;8353969;28;20021;-66
2021/03/01 07:44:10;;;;;;;15.00;6.95;;;0.40;99.90;;;;;;8351854;28;20025;-66
2021/03/01 07:48:14;;;;;;;12.25;6.85;;;0.60;99.90;;;;;;8352943;28;20032;-65
2021/03/01 07:52:18;;;;;;;16.20;7.78;;;0.70;99.90;;;;;;8359799;28;20471;-65
2021/03/01 07:56:24;;;;;;;17.40;9.85;;;0.90;99.90;;;;;;8362398;28;20087;-65
2021/03/01 08:00:30;;;;;;;16.52;9.20;;;1.00;99.90;;;;;;8358613;28;20108;-65
2021/03/01 08:04:33;;;;;;;19.90;8.82;;;1.20;99.90;;;;;;8356524;28;20035;-65
2021/03/01 08:08:43;;;;;;;16.98;9.68;;;1.50;99.90;;;;;;8355751;28;20029;-66
2021/03/01 08:12:47;;;;;;;17.63;9.75;;;1.60;99.90;;;;;;8353996;28;20028;-65
2021/03/01 08:16:47;;;;;;;16.75;10.00;;;1.90;99.90;;;;;;8359322;28;20572;-65
2021/03/01 08:20:56;;;;;;;18.20;10.82;;;2.10;99.90;;;;;;8358945;28;20025;-66
2021/03/01 08:24:57;;;;;;;19.35;11.30;;;2.40;99.90;;;;;;8359719;28;20403;-66
2021/03/01 08:29:17;;;;;;;22.27;11.30;;;2.70;99.90;;;;;;8356940;28;20032;-66
2021/03/01 08:33:17;;;;;;;20.30;11.50;;;3.00;99.90;;;;;;8359896;28;20060;-66
2021/03/01 08:37:44;;;;;;;20.58;11.13;;;3.30;99.90;;;;;;8361091;28;20476;-66
2021/03/01 08:41:45;;;;;;;20.75;11.57;;;3.60;99.90;;;;;;8355236;28;20479;-67
2021/03/01 08:45:45;;;;;;;23.05;12.52;;;3.90;99.90;;;;;;8358951;28;20021;-67
2021/03/01 08:49:46;;;;;;;20.63;10.27;;;4.00;99.90;;;;;;8356833;28;20531;-66
2021/03/01 08:53:48;;;;;;;16.63;10.05;;;4.30;99.90;;;;;;8360922;28;20100;-67
2021/03/01 08:58:02;;;;;;;16.33;9.73;;;4.40;99.90;;;;;;8360258;28;20033;-65
2021/03/01 09:02:03;;;;;;;18.80;10.50;;;4.70;99.90;;;;;;8357510;28;20052;-66
2021/03/01 09:06:18;;;;;;;17.67;10.55;;;4.90;99.90;;;;;;8433551;22;20051;-69
2021/03/01 09:10:36;;;;;;;15.70;9.55;;;5.10;99.90;;;;;;8417674;28;20032;-69
2021/03/01 09:14:38;;;;;;;14.90;6.72;;;5.20;99.90;;;;;;8406347;28;20059;-69
2021/03/01 09:18:40;;;;;;;17.08;10.18;;;5.30;99.90;;;;;;8374497;28;20530;-69
2021/03/01 09:22:44;;;;;;;20.73;10.18;;;5.30;99.90;;;;;;8390617;28;20306;-69
2021/03/01 09:26:46;;;;;;;15.40;10.15;;;5.50;99.90;;;;;;8400340;28;20491;-69
2021/03/01 09:30:47;;;;;;;16.70;10.65;;;5.70;99.90;;;;;;8408874;28;20051;-68
2021/03/01 09:34:48;;;;;;;16.40;10.00;;;5.70;99.90;;;;;;8399091;28;20626;-69
2021/03/01 09:38:52;;;;;;;17.98;9.82;;;5.80;99.90;;;;;;8400247;28;20032;-68
2021/03/01 09:42:55;;;;;;;17.52;9.82;;;6.10;99.90;;;;;;8390606;28;20483;-68
2021/03/01 09:46:57;;;;;;;15.02;9.73;;;6.20;99.90;;;;;;8401158;28;20086;-69
2021/03/01 09:50:59;;;;;;;15.05;9.15;;;6.50;99.90;;;;;;8376780;28;20070;-68
2021/03/01 09:54:59;;;;;;;15.23;9.27;;;6.80;99.90;;;;;;8381969;28;20025;-69
2021/03/01 09:59:00;;;;;;;12.63;7.72;;;7.00;99.90;;;;;;8370750;28;20499;-68
2021/03/01 10:03:03;;;;;;;16.67;9.45;;;7.20;99.90;;;;;;8355911;28;20037;-68
2021/03/01 10:07:18;;;;;;;11.30;6.70;;;7.20;99.90;;;;;;8368120;28;20045;-68
2021/03/01 10:11:24;;;;;;;14.90;8.18;;;7.40;99.90;;;;;;8394646;28;20490;-68
2021/03/01 10:15:24;;;;;;;9.95;5.05;;;7.10;99.90;;;;;;8401399;28;20028;-68
2021/03/01 10:19:25;;;;;;;19.02;9.32;;;7.10;99.90;;;;;;8407322;28;20483;-68
2021/03/01 10:23:33;;;;;;;12.55;8.88;;;7.40;99.90;;;;;;8399235;28;20364;-68
2021/03/01 10:27:36;;;;;;;11.35;6.97;;;7.70;99.90;;;;;;8392043;28;20021;-68
2021/03/01 10:31:39;;;;;;;18.13;9.25;;;8.00;99.90;;;;;;8388965;28;20037;-68
2021/03/01 10:35:39;;;;;;;16.20;10.40;;;8.20;99.90;;;;;;8406872;28;20032;-68
2021/03/01 10:39:46;;;;;;;15.05;8.82;;;8.50;99.90;;;;;;8401495;28;20024;-68
2021/03/01 10:44:04;;;;;;;15.00;8.43;;;8.90;99.90;;;;;;8396555;28;20047;-68
2021/03/01 10:48:05;;;;;;;13.00;8.63;;;9.20;99.90;;;;;;8367207;28;20028;-69
2021/03/01 10:52:07;;;;;;;13.70;8.57;;;9.60;99.90;;;;;;8385100;28;20046;-69
2021/03/01 10:56:08;;;;;;;13.10;10.43;;;10.10;99.90;;;;;;8390760;28;20480;-68
2021/03/01 11:00:09;;;;;;;15.57;7.53;;;10.80;99.90;;;;;;8382239;28;20028;-68
2021/03/01 11:04:14;;;;;;;;;;;14.50;99.90;;;;;;8374242;28;20020;-69
2021/03/01 11:08:14;;;;;;;10.00;7.70;;;18.30;77.40;;;;;;8397197;28;20432;-69
2021/03/01 11:12:15;;;;;;;8.90;7.13;;;17.30;65.40;;;;;;8398059;28;20020;-69
2021/03/01 11:16:15;;;;;;;8.63;7.05;;;18.20;65.00;;;;;;8396162;28;20059;-68
2021/03/01 11:20:16;;;;;;;10.13;7.45;;;20.00;56.10;;;;;;8412434;28;20036;-69
2021/03/01 11:24:20;;;;;;;9.18;6.55;;;19.60;57.80;;;;;;8401055;28;20028;-69
2021/03/01 11:28:20;;;;;;;8.73;6.43;;;20.80;52.30;;;;;;8379913;28;20493;-68
2021/03/01 11:32:21;;;;;;;12.68;7.47;;;19.30;55.10;;;;;;8406601;28;20078;-69
2021/03/01 11:36:21;;;;;;;8.48;6.40;;;22.10;51.90;;;;;;8398419;28;20523;-67
2021/03/01 11:40:22;;;;;;;8.25;5.80;;;24.70;44.40;;;;;;8395069;28;20411;-67
2021/03/01 11:44:23;;;;;;;8.48;6.35;;;24.10;41.50;;;;;;8387898;28;20510;-66
2021/03/01 11:48:23;;;;;;;5.90;4.88;;;20.20;47.10;;;;;;8383652;28;20483;-66
2021/03/01 11:52:24;;;;;;;9.52;6.32;;;17.90;52.60;;;;;;8377952;28;20400;-66
2021/03/01 11:56:25;;;;;;;7.88;5.68;;;18.80;53.00;;;;;;8379478;28;20368;-67
2021/03/01 12:00:25;;;;;;;6.90;6.03;;;22.60;45.50;;;;;;8382523;28;20086;-67
2021/03/01 12:04:26;;;;;;;6.32;5.68;;;26.30;39.60;;;;;;8386428;28;20402;-67
2021/03/01 12:08:26;;;;;;;7.43;6.07;;;26.10;36.80;;;;;;8379262;28;20028;-67
2021/03/01 12:12:27;;;;;;;6.72;5.65;;;27.90;35.40;;;;;;8377738;28;20025;-66
2021/03/01 12:16:28;;;;;;;7.40;5.45;;;23.80;38.90;;;;;;8414557;28;20024;-66
2021/03/01 12:20:29;;;;;;;9.57;5.53;;;23.70;41.90;;;;;;8423589;28;20034;-66
2021/03/01 12:24:30;;;;;;;8.00;5.88;;;25.50;36.50;;;;;;8394510;28;20028;-66
2021/03/01 12:28:30;;;;;;;8.32;5.50;;;24.10;40.20;;;;;;8398585;28;20031;-66
2021/03/01 12:32:31;;;;;;;8.10;5.88;;;25.80;36.00;;;;;;8402832;28;20020;-66
2021/03/01 12:36:31;;;;;;;8.43;6.35;;;24.30;37.00;;;;;;8387035;28;20021;-66
2021/03/01 12:40:32;;;;;;;6.10;5.28;;;25.30;38.40;;;;;;8379261;28;20407;-66
2021/03/01 12:44:33;;;;;;;7.07;5.55;;;23.70;38.90;;;;;;8383152;28;20056;-66
2021/03/01 12:48:34;;;;;;;8.07;5.68;;;21.70;42.70;;;;;;8383147;28;20067;-66
2021/03/01 12:52:34;;;;;;;7.05;5.70;;;24.20;39.60;;;;;;8371114;28;20082;-67
2021/03/01 12:56:35;;;;;;;6.47;5.80;;;26.80;35.90;;;;;;8406803;28;20466;-67
2021/03/01 13:00:36;;;;;;;6.80;5.65;;;28.30;33.70;;;;;;8409507;28;20055;-66
2021/03/01 13:04:36;;;;;;;7.78;6.65;;;27.10;34.00;;;;;;8381262;28;20453;-66
2021/03/01 13:08:37;;;;;;;6.75;5.82;;;24.80;38.10;;;;;;8404434;28;20101;-66
2021/03/01 13:12:39;;;;;;;8.38;5.90;;;23.00;39.90;;;;;;8420114;28;20024;-66
2021/03/01 13:16:39;;;;;;;8.70;5.97;;;21.80;42.90;;;;;;8412223;28;20112;-67
2021/03/01 13:20:40;;;;;;;7.30;5.97;;;26.50;37.70;;;;;;8399756;28;20040;-67
2021/03/01 13:24:41;;;;;;;6.18;5.57;;;30.50;32.00;;;;;;8396988;28;20036;-67
2021/03/01 13:28:42;;;;;;;6.90;5.72;;;30.40;30.00;;;;;;8389730;28;20023;-67
2021/03/01 13:32:43;;;;;;;6.75;6.07;;;30.60;31.00;;;;;;8402008;28;20044;-67
2021/03/01 13:36:43;;;;;;;7.00;6.28;;;33.40;28.80;;;;;;8405239;28;20686;-67
2021/03/01 13:40:44;;;;;;;7.88;6.45;;;34.40;27.40;;;;;;8392132;28;20032;-67
2021/03/01 13:44:45;;;;;;;6.28;5.68;;;34.40;27.30;;;;;;8392930;28;20060;-67
2021/03/01 13:48:45;;;;;;;6.78;5.90;;;34.60;26.90;;;;;;8397402;28;20506;-67
2021/03/01 13:52:46;;;;;;;7.38;6.43;;;34.30;26.00;;;;;;8386256;28;20033;-67
2021/03/01 13:56:47;;;;;;;9.13;6.45;;;33.90;27.10;;;;;;8393448;28;20040;-67
2021/03/01 14:00:48;;;;;;;7.00;5.57;;;32.20;27.10;;;;;;8396348;28;20499;-66
2021/03/01 14:04:48;;;;;;;8.32;5.68;;;29.60;29.10;;;;;;8399293;28;20032;-66
2021/03/01 14:08:49;;;;;;;9.27;7.45;;;27.20;32.00;;;;;;8360532;28;20033;-66
2021/03/01 14:12:49;;;;;;;7.40;5.72;;;28.00;32.00;;;;;;8375990;28;20029;-66
2021/03/01 14:16:50;;;;;;;8.20;6.03;;;28.90;29.80;;;;;;8401319;28;20032;-66
2021/03/01 14:20:50;;;;;;;6.68;5.57;;;28.00;31.20;;;;;;8392167;28;20031;-67
2021/03/01 14:24:51;;;;;;;8.32;6.32;;;27.90;30.80;;;;;;8399608;28;20399;-67
2021/03/01 14:28:52;;;;;;;6.70;5.60;;;25.10;33.80;;;;;;8396240;28;20119;-66
2021/03/01 14:32:52;;;;;;;8.48;5.57;;;21.40;39.40;;;;;;8382204;28;20036;-67
2021/03/01 14:36:53;;;;;;;8.85;6.13;;;20.10;42.90;;;;;;8401692;28;20452;-67
2021/03/01 14:40:54;;;;;;;12.45;6.00;;;19.30;44.90;;;;;;8394486;28;20066;-67
2021/03/01 14:44:54;;;;;;;9.90;5.43;;;17.30;48.40;;;;;;8403890;28;20021;-66
2021/03/01 14:48:55;;;;;;;9.18;5.72;;;15.90;52.00;;;;;;8369963;28;20553;-67
2021/03/01 14:52:55;;;;;;;7.53;5.35;;;15.00;54.30;;;;;;8358878;28;20048;-67
2021/03/01 14:56:56;;;;;;;9.13;5.90;;;14.60;54.50;;;;;;8374855;28;20618;-67
2021/03/01 15:00:58;;;;;;;11.98;5.95;;;14.50;56.40;;;;;;8385623;28;20048;-67
2021/03/01 15:04:59;;;;;;;8.02;5.63;;;14.50;56.50;;;;;;8360185;28;20040;-66
2021/03/01 15:08:59;;;;;;;8.25;5.75;;;14.40;55.90;;;;;;8356623;28;20547;-67
2021/03/01 15:13:00;;;;;;;9.48;6.30;;;13.90;59.20;;;;;;8364196;28;20021;-66
2021/03/01 15:17:00;;;;;;;9.35;6.15;;;13.90;58.50;;;;;;8377850;28;20429;-67
2021/03/01 15:21:03;;;;;;;8.25;6.28;;;13.70;58.50;;;;;;8402154;22;20066;-69
2021/03/01 15:25:06;;;;;;;11.63;6.47;;;13.60;59.00;;;;;;8418554;28;20095;-69
2021/03/01 15:29:07;;;;;;;7.93;5.65;;;13.30;59.70;;;;;;8401232;28;20032;-69
2021/03/01 15:33:07;;;;;;;9.27;6.30;;;13.20;60.00;;;;;;8379020;28;20025;-69
2021/03/01 15:37:08;;;;;;;8.82;6.40;;;13.20;60.00;;;;;;8389131;28;20042;-69
2021/03/01 15:41:09;;;;;;;10.18;6.47;;;13.10;61.30;;;;;;8388701;28;20413;-69
2021/03/01 15:45:10;;;;;;;8.70;6.32;;;13.00;62.20;;;;;;8368181;28;20453;-69
2021/03/01 15:49:12;;;;;;;9.85;6.63;;;12.90;63.00;;;;;;8388147;28;20053;-69
2021/03/01 15:53:13;;;;;;;10.30;6.30;;;12.90;63.20;;;;;;8371749;28;20035;-69
2021/03/01 15:57:13;;;;;;;10.20;6.47;;;12.90;63.60;;;;;;8390535;28;20028;-69
2021/03/01 16:01:14;;;;;;;8.65;5.90;;;12.80;62.80;;;;;;8369245;28;20039;-68
2021/03/01 16:05:15;;;;;;;9.90;6.45;;;12.30;63.70;;;;;;8385679;28;20029;-67
2021/03/01 16:09:15;;;;;;;9.85;6.35;;;12.10;65.40;;;;;;8376500;28;20047;-66
2021/03/01 16:13:16;;;;;;;10.57;7.18;;;12.00;65.30;;;;;;8391526;28;20021;-67
2021/03/01 16:17:16;;;;;;;12.82;7.13;;;11.70;66.00;;;;;;8392107;28;20043;-66
2021/03/01 16:21:20;;;;;;;10.52;6.25;;;11.50;67.40;;;;;;8393996;28;20032;-67
2021/03/01 16:25:21;;;;;;;10.00;6.43;;;11.40;66.90;;;;;;8393377;28;20093;-67
2021/03/01 16:29:22;;;;;;;11.85;6.45;;;11.20;68.40;;;;;;8376299;28;20066;-70
2021/03/01 16:33:23;;;;;;;10.85;6.40;;;11.10;68.80;;;;;;8376455;28;20028;-71
2021/03/01 16:37:23;;;;;;;12.82;7.07;;;10.80;70.30;;;;;;8377401;28;20103;-68
2021/03/01 16:41:28;;;;;;;10.70;6.15;;;10.60;72.10;;;;;;8384354;28;20054;-72
2021/03/01 16:45:29;;;;;;;8.32;5.78;;;10.30;73.40;;;;;;8388667;28;20025;-69
2021/03/01 16:49:30;;;;;;;11.02;6.35;;;10.00;76.70;;;;;;8383786;28;20384;-71
2021/03/01 16:53:36;;;;;;;8.95;5.50;;;9.60;78.80;;;;;;8381789;28;20028;-69
2021/03/01 16:57:41;;;;;;;9.90;5.90;;;9.30;81.80;;;;;;8359855;28;20043;-68
2021/03/01 17:01:43;;;;;;;10.88;5.82;;;9.00;83.20;;;;;;8375720;28;20032;-69
2021/03/01 17:05:44;;;;;;;10.25;5.93;;;8.70;86.00;;;;;;8385959;28;20021;-69
2021/03/01 17:09:45;;;;;;;9.90;6.00;;;8.40;88.60;;;;;;8389487;28;20037;-68
2021/03/01 17:13:49;;;;;;;10.18;5.60;;;8.10;90.30;;;;;;8385163;28;20025;-68
2021/03/01 17:17:54;;;;;;;10.88;5.72;;;8.00;91.60;;;;;;8370863;28;20166;-68
2021/03/01 17:21:56;;;;;;;11.10;5.47;;;7.70;93.20;;;;;;8353708;28;20081;-69
2021/03/01 17:25:57;;;;;;;9.10;5.45;;;7.50;94.80;;;;;;8347518;28;20037;-68
2021/03/01 17:29:58;;;;;;;10.10;5.75;;;7.40;95.90;;;;;;8339956;28;20036;-69
2021/03/01 17:34:02;;;;;;;7.95;5.15;;;7.30;97.60;;;;;;8356090;28;20490;-69
2021/03/01 17:38:03;;;;;;;9.10;5.00;;;7.10;99.90;;;;;;8336365;28;20040;-68
2021/03/01 17:42:05;;;;;;;8.43;5.03;;;6.90;99.90;;;;;;8340298;28;20116;-69
2021/03/01 17:46:10;;;;;;;8.43;5.38;;;6.80;99.90;;;;;;8365812;28;20059;-69
2021/03/01 17:50:14;;;;;;;10.25;5.88;;;6.60;99.90;;;;;;8362441;28;20479;-69
2021/03/01 17:54:41;;;;;;;11.18;5.50;;;6.50;99.90;;;;;;8380935;28;20032;-69
2021/03/01 17:58:45;;;;;;;12.07;6.32;;;6.50;99.90;;;;;;8360986;28;20036;-70
2021/03/01 18:02:50;;;;;;;13.00;5.43;;;6.50;99.90;;;;;;8368118;28;20055;-69
2021/03/01 18:06:54;;;;;;;14.52;7.32;;;6.30;99.90;;;;;;8373692;28;20036;-69
2021/03/01 18:10:56;;;;;;;33.50;15.27;;;6.30;99.90;;;;;;8374464;28;20020;-70
2021/03/01 18:14:58;;;;;;;15.57;7.82;;;6.10;99.90;;;;;;8358940;28;20399;-70
2021/03/01 18:19:01;;;;;;;12.48;6.30;;;6.00;99.90;;;;;;8352328;28;20032;-69
2021/03/01 18:23:04;;;;;;;11.30;6.25;;;6.00;99.90;;;;;;8362038;28;20483;-68
2021/03/01 18:27:06;;;;;;;12.55;5.90;;;5.90;99.90;;;;;;8384231;28;20016;-70
2021/03/01 18:31:06;;;;;;;18.23;9.60;;;5.80;99.90;;;;;;8390871;28;20446;-70
2021/03/01 18:35:08;;;;;;;15.00;5.38;;;5.60;99.90;;;;;;8392581;28;20033;-69
2021/03/01 18:39:12;;;;;;;11.48;5.82;;;5.40;99.90;;;;;;8378326;28;20126;-70
2021/03/01 18:43:14;;;;;;;16.20;6.38;;;5.10;99.90;;;;;;8370907;28;20024;-68
2021/03/01 18:47:16;;;;;;;11.75;6.22;;;4.90;99.90;;;;;;8361010;28;20123;-71
2021/03/01 18:51:16;;;;;;;11.80;6.85;;;4.80;99.90;;;;;;8380832;28;20037;-70
2021/03/01 18:55:18;;;;;;;10.07;6.45;;;4.70;99.90;;;;;;8364918;28;20470;-69
2021/03/01 18:59:19;;;;;;;10.02;6.45;;;4.60;99.90;;;;;;8384600;28;20074;-68
2021/03/01 19:03:19;;;;;;;23.45;11.48;;;4.60;99.90;;;;;;8385887;28;20028;-70
2021/03/01 19:07:20;;;;;;;20.40;10.02;;;4.50;99.90;;;;;;8367878;28;20210;-69
2021/03/01 19:11:21;;;;;;;17.25;9.45;;;4.40;99.90;;;;;;8368757;28;20035;-67
2021/03/01 19:15:21;;;;;;;26.25;12.75;;;4.60;99.90;;;;;;8368382;28;20027;-66
2021/03/01 19:19:22;;;;;;;35.58;16.67;;;4.30;99.90;;;;;;8385304;28;20032;-66
2021/03/01 19:23:24;;;;;;;42.20;19.80;;;4.10;99.90;;;;;;8364501;28;20043;-66
2021/03/01 19:27:24;;;;;;;35.33;16.95;;;4.00;99.90;;;;;;8378679;28;20115;-67
2021/03/01 19:31:25;;;;;;;32.78;15.82;;;3.90;99.90;;;;;;8377853;28;20043;-69
2021/03/01 19:35:25;;;;;;;32.85;16.83;;;3.80;99.90;;;;;;8373052;28;20052;-69
2021/03/01 19:39:26;;;;;;;27.52;14.32;;;3.70;99.90;;;;;;8362051;28;20543;-69
2021/03/01 19:43:26;;;;;;;25.65;12.05;;;3.70;99.90;;;;;;8389439;28;20028;-68
2021/03/01 19:47:27;;;;;;;17.13;9.55;;;3.60;99.90;;;;;;8375681;28;20044;-69
2021/03/01 19:51:28;;;;;;;19.48;8.85;;;3.50;99.90;;;;;;8379223;28;20431;-68
2021/03/01 19:55:29;;;;;;;15.57;8.77;;;3.40;99.90;;;;;;8374407;28;20025;-70
2021/03/01 19:59:30;;;;;;;19.15;8.73;;;3.30;99.90;;;;;;8380469;28;20109;-69
2021/03/01 20:03:30;;;;;;;19.95;10.00;;;3.60;99.90;;;;;;8383165;28;20062;-69
2021/03/01 20:07:32;;;;;;;18.58;9.82;;;3.30;99.90;;;;;;8367948;28;20055;-69
2021/03/01 20:11:33;;;;;;;16.05;9.20;;;3.10;99.90;;;;;;8379655;28;20391;-69
2021/03/01 20:15:34;;;;;;;16.00;8.50;;;3.00;99.90;;;;;;8364131;28;20025;-69
2021/03/01 20:19:34;;;;;;;13.20;6.57;;;2.80;99.90;;;;;;8384093;28;20028;-70
2021/03/01 20:23:35;;;;;;;12.98;6.55;;;2.90;99.90;;;;;;8390429;28;20086;-70
2021/03/01 20:27:36;;;;;;;15.20;6.57;;;2.90;99.90;;;;;;8370116;28;20036;-70
2021/03/01 20:31:36;;;;;;;11.25;5.50;;;3.00;99.90;;;;;;8390292;28;20449;-69
2021/03/01 20:35:37;;;;;;;11.63;5.82;;;2.80;99.90;;;;;;8389977;28;20028;-70
2021/03/01 20:39:38;;;;;;;12.65;5.63;;;2.90;99.90;;;;;;8371821;28;20035;-70
2021/03/01 20:43:38;;;;;;;12.20;6.47;;;2.80;99.90;;;;;;8389198;28;20029;-69
2021/03/01 20:47:39;;;;;;;12.63;6.97;;;2.70;99.90;;;;;;8386589;28;20037;-69
2021/03/01 20:51:40;;;;;;;17.98;7.38;;;2.50;99.90;;;;;;8365066;28;20072;-69
2021/03/01 20:55:41;;;;;;;13.85;6.30;;;2.40;99.90;;;;;;8383772;28;20029;-70